createdAt,value
2023-05-11T00:00:36.668Z,13.32
2023-05-11T00:03:03.220Z,13.28
2023-05-11T00:05:29.702Z,13.25
2023-05-11T00:07:56.175Z,13.24
2023-05-11T00:10:22.815Z,13.21
2023-05-11T00:12:49.335Z,13.20
2023-05-11T00:15:15.750Z,13.17
2023-05-11T00:17:42.386Z,13.20
2023-05-11T00:20:09.378Z,13.19
2023-05-11T00:22:35.914Z,13.18
2023-05-11T00:25:02.671Z,13.15
2023-05-11T00:27:29.157Z,13.16
2023-05-11T00:29:55.771Z,13.16
2023-05-11T00:32:22.657Z,13.11
2023-05-11T00:34:49.221Z,13.12
2023-05-11T00:37:16.075Z,13.08
2023-05-11T00:39:42.554Z,13.08
2023-05-11T00:42:10.420Z,13.09
2023-05-11T00:44:36.906Z,13.10
2023-05-11T00:47:03.897Z,13.07
2023-05-11T00:49:31.201Z,13.00
2023-05-11T00:51:57.903Z,12.94
2023-05-11T00:54:24.729Z,13.00
2023-05-11T00:56:51.826Z,12.93
2023-05-11T00:59:18.722Z,12.92
2023-05-11T01:01:45.615Z,12.88
2023-05-11T01:04:12.837Z,12.88
2023-05-11T01:06:54.527Z,12.92
2023-05-11T01:09:32.198Z,12.97
2023-05-11T01:12:23.666Z,13.00
2023-05-11T01:15:13.563Z,12.97
2023-05-11T01:18:03.033Z,12.93
2023-05-11T01:20:30.727Z,13.00
2023-05-11T01:23:22.474Z,13.00
2023-05-11T01:25:52.038Z,13.06
2023-05-11T01:28:33.400Z,13.04
2023-05-11T01:31:11.303Z,13.07
2023-05-11T01:33:44.532Z,13.07
2023-05-11T01:36:12.819Z,13.06
2023-05-11T01:38:45.224Z,13.01
2023-05-11T01:41:23.465Z,13.01
2023-05-11T01:43:58.274Z,13.04
2023-05-11T01:46:32.138Z,13.06
2023-05-11T01:49:00.819Z,13.02
2023-05-11T01:51:33.625Z,12.99
2023-05-11T01:54:01.740Z,12.99
2023-05-11T01:56:29.078Z,12.92
2023-05-11T01:58:57.410Z,12.99
2023-05-11T02:01:25.583Z,12.96
2023-05-11T02:03:53.719Z,12.98
2023-05-11T02:06:22.487Z,12.97
2023-05-11T02:08:50.951Z,12.96
2023-05-11T02:11:20.509Z,12.95
2023-05-11T02:13:50.712Z,12.92
2023-05-11T02:16:19.087Z,12.91
2023-05-11T02:18:46.429Z,12.90
2023-05-11T02:21:15.223Z,12.80
2023-05-11T02:23:43.389Z,12.86
2023-05-11T02:26:12.289Z,12.84
2023-05-11T02:28:38.930Z,12.85
2023-05-11T02:31:11.011Z,12.85
2023-05-11T02:33:43.497Z,12.78
2023-05-11T02:36:14.603Z,12.78
2023-05-11T02:38:43.431Z,12.71
2023-05-11T02:41:16.165Z,12.68
2023-05-11T02:43:47.574Z,12.77
2023-05-11T02:46:17.165Z,12.81
2023-05-11T02:48:47.078Z,12.82
2023-05-11T02:51:17.017Z,12.76
2023-05-11T02:53:45.882Z,12.78
2023-05-11T02:56:13.289Z,12.83
2023-05-11T02:58:40.128Z,12.84
2023-05-11T03:01:07.523Z,12.85
2023-05-11T03:03:34.149Z,12.84
2023-05-11T03:06:00.707Z,12.82
2023-05-11T03:08:27.811Z,12.82
2023-05-11T03:10:54.922Z,12.78
2023-05-11T03:13:24.052Z,12.79
2023-05-11T03:15:52.781Z,12.78
2023-05-11T03:18:21.120Z,12.82
2023-05-11T03:20:48.122Z,12.80
2023-05-11T03:23:16.796Z,12.80
2023-05-11T03:25:44.607Z,12.78
2023-05-11T03:28:13.661Z,12.76
2023-05-11T03:30:40.750Z,12.75
2023-05-11T03:33:07.325Z,12.72
2023-05-11T03:35:34.990Z,12.69
2023-05-11T03:38:02.839Z,12.70
2023-05-11T03:40:31.515Z,12.68
2023-05-11T03:43:00.220Z,12.67
2023-05-11T03:45:28.882Z,12.63
2023-05-11T03:47:57.397Z,12.61
2023-05-11T03:50:24.397Z,12.62
2023-05-11T03:52:51.039Z,12.61
2023-05-11T03:55:17.590Z,12.57
2023-05-11T03:57:44.167Z,12.57
2023-05-11T04:00:11.705Z,12.52
2023-05-11T04:02:38.525Z,12.53
2023-05-11T04:05:09.536Z,12.58
2023-05-11T04:07:37.912Z,12.59
2023-05-11T04:10:05.854Z,12.64
2023-05-11T04:12:32.595Z,12.68
2023-05-11T04:14:59.005Z,12.71
2023-05-11T04:17:25.599Z,12.70
2023-05-11T04:19:52.406Z,12.69
2023-05-11T04:22:18.906Z,12.67
2023-05-11T04:24:45.533Z,12.71
2023-05-11T04:27:12.094Z,12.70
2023-05-11T04:29:38.538Z,12.66
2023-05-11T04:32:05.112Z,12.64
2023-05-11T04:34:31.527Z,12.61
2023-05-11T04:36:58.008Z,12.70
2023-05-11T04:39:24.397Z,12.67
2023-05-11T04:41:50.873Z,12.77
2023-05-11T04:44:17.316Z,12.83
2023-05-11T04:46:43.784Z,12.85
2023-05-11T04:49:10.319Z,12.83
2023-05-11T04:51:36.772Z,12.89
2023-05-11T04:54:04.856Z,12.95
2023-05-11T04:56:31.361Z,12.98
2023-05-11T04:58:57.822Z,12.98
2023-05-11T05:01:24.374Z,13.02
2023-05-11T05:03:51.129Z,13.03
2023-05-11T05:06:17.699Z,13.07
2023-05-11T05:08:44.239Z,12.94
2023-05-11T05:11:11.062Z,13.02
2023-05-11T05:13:37.634Z,13.01
2023-05-11T05:16:04.329Z,13.04
2023-05-11T05:18:30.867Z,13.10
2023-05-11T05:20:57.408Z,13.13
2023-05-11T05:23:23.886Z,13.14
2023-05-11T05:25:50.435Z,13.03
2023-05-11T05:28:16.864Z,13.04
2023-05-11T05:30:43.407Z,13.02
2023-05-11T05:33:09.931Z,13.12
2023-05-11T05:35:36.388Z,13.13
2023-05-11T05:38:02.855Z,13.32
2023-05-11T05:40:29.400Z,13.41
2023-05-11T05:42:55.938Z,13.30
2023-05-11T05:45:22.403Z,13.37
2023-05-11T05:47:49.299Z,13.33
2023-05-11T05:50:16.061Z,13.41
2023-05-11T05:52:42.742Z,13.36
2023-05-11T05:55:09.368Z,13.45
2023-05-11T05:57:35.859Z,13.43
2023-05-11T06:00:02.541Z,13.69
2023-05-11T06:02:29.201Z,13.53
2023-05-11T06:04:56.380Z,13.53
2023-05-11T06:07:22.871Z,13.45
2023-05-11T06:09:49.392Z,13.32
2023-05-11T06:12:15.944Z,13.40
2023-05-11T06:14:42.385Z,13.54
2023-05-11T06:17:08.830Z,13.68
2023-05-11T06:19:35.288Z,13.75
2023-05-11T06:22:03.097Z,13.68
2023-05-11T06:24:30.803Z,13.67
2023-05-11T06:26:57.402Z,13.63
2023-05-11T06:29:23.821Z,13.84
2023-05-11T06:31:52.958Z,13.86
2023-05-11T06:34:20.562Z,14.05
2023-05-11T06:36:47.830Z,14.06
2023-05-11T06:39:14.739Z,14.55
2023-05-11T06:41:41.260Z,14.53
2023-05-11T06:44:08.502Z,14.76
2023-05-11T06:46:35.011Z,14.83
2023-05-11T06:49:01.882Z,14.90
2023-05-11T06:51:28.319Z,14.83
2023-05-11T06:53:54.753Z,14.88
2023-05-11T06:56:21.916Z,14.90
2023-05-11T06:58:48.424Z,14.81
2023-05-11T07:01:15.096Z,14.85
2023-05-11T07:03:41.675Z,14.67
2023-05-11T07:06:08.393Z,14.63
2023-05-11T07:08:34.915Z,14.76
2023-05-11T07:11:01.523Z,15.04
2023-05-11T07:13:27.978Z,15.43
2023-05-11T07:15:57.868Z,15.37
2023-05-11T07:18:24.583Z,15.42
2023-05-11T07:20:51.070Z,15.89
2023-05-11T07:23:17.557Z,16.21
2023-05-11T07:25:44.008Z,17.16
2023-05-11T07:28:10.479Z,16.72
2023-05-11T07:30:37.015Z,16.37
2023-05-11T07:33:04.034Z,16.49
2023-05-11T07:35:30.881Z,16.23
2023-05-11T07:37:57.425Z,15.89
2023-05-11T07:40:23.921Z,15.78
2023-05-11T07:42:50.397Z,15.69
2023-05-11T07:45:16.942Z,15.93
2023-05-11T07:47:43.488Z,15.65
2023-05-11T07:50:10.251Z,15.58
2023-05-11T07:52:36.730Z,15.50
2023-05-11T07:55:03.291Z,15.54
2023-05-11T07:57:29.765Z,15.59
2023-05-11T07:59:56.826Z,15.39
2023-05-11T08:02:23.415Z,15.63
2023-05-11T08:04:50.300Z,15.89
2023-05-11T08:07:16.758Z,15.94
2023-05-11T08:09:43.203Z,15.53
2023-05-11T08:12:09.840Z,16.05
2023-05-11T08:14:36.427Z,16.31
2023-05-11T08:17:02.938Z,16.46
2023-05-11T08:19:29.458Z,16.19
2023-05-11T08:21:55.998Z,16.35
2023-05-11T08:24:22.547Z,16.48
2023-05-11T08:26:48.968Z,16.47
2023-05-11T08:29:15.578Z,16.64
2023-05-11T08:31:42.041Z,16.75
2023-05-11T08:34:18.713Z,16.77
2023-05-11T08:36:46.890Z,17.10
2023-05-11T08:39:13.551Z,17.25
2023-05-11T08:41:40.001Z,17.68
2023-05-11T08:44:07.725Z,17.92
2023-05-11T08:46:36.409Z,17.86
2023-05-11T08:49:03.228Z,17.71
2023-05-11T08:51:29.732Z,18.02
2023-05-11T08:53:57.781Z,18.15
2023-05-11T08:56:26.119Z,17.56
2023-05-11T08:58:56.168Z,17.18
2023-05-11T09:01:23.751Z,17.26
2023-05-11T09:03:51.749Z,17.60
2023-05-11T09:06:18.678Z,17.88
2023-05-11T09:08:46.250Z,18.02
2023-05-11T09:11:13.488Z,17.88
2023-05-11T09:13:40.217Z,17.99
2023-05-11T09:16:13.777Z,18.35
2023-05-11T09:18:51.492Z,18.27
2023-05-11T09:21:18.793Z,18.04
2023-05-11T09:23:45.706Z,18.36
2023-05-11T09:26:16.712Z,19.02
2023-05-11T09:29:03.075Z,18.84
2023-05-11T09:31:46.822Z,18.39
2023-05-11T09:34:20.474Z,20.15
2023-05-11T09:36:51.939Z,20.13
2023-05-11T09:39:35.304Z,20.33
2023-05-11T09:42:21.063Z,19.97
2023-05-11T09:44:48.389Z,19.07
2023-05-11T09:47:19.390Z,18.76
2023-05-11T09:49:47.764Z,18.66
2023-05-11T09:52:16.455Z,18.88
2023-05-11T09:54:48.342Z,19.73
2023-05-11T09:57:30.675Z,20.47
2023-05-11T09:59:58.817Z,20.02
2023-05-11T10:02:30.294Z,19.39
2023-05-11T10:04:58.913Z,19.15
2023-05-11T10:07:32.160Z,19.90
2023-05-11T10:10:01.574Z,22.25
2023-05-11T10:12:30.336Z,21.92
2023-05-11T10:15:08.901Z,20.62
2023-05-11T10:17:36.817Z,19.76
2023-05-11T10:20:06.186Z,18.84
2023-05-11T10:22:32.946Z,18.11
2023-05-11T10:25:00.220Z,17.68
2023-05-11T10:27:27.402Z,17.63
2023-05-11T10:29:54.004Z,17.37
2023-05-11T10:32:20.823Z,17.82
2023-05-11T10:34:48.530Z,18.01
2023-05-11T10:37:16.733Z,17.88
2023-05-11T10:39:47.729Z,17.87
2023-05-11T10:42:18.661Z,17.55
2023-05-11T10:45:11.596Z,17.57
2023-05-11T10:48:06.696Z,17.47
2023-05-11T10:51:15.711Z,17.50
2023-05-11T10:54:07.473Z,17.72
2023-05-11T10:56:56.827Z,18.21
2023-05-11T10:59:45.011Z,18.06
2023-05-11T11:02:11.901Z,18.40
2023-05-11T11:04:51.898Z,18.00
2023-05-11T11:07:19.780Z,18.49
2023-05-11T11:10:16.513Z,18.45
2023-05-11T11:13:02.742Z,19.43
2023-05-11T11:15:54.438Z,18.58
2023-05-11T11:18:25.132Z,18.66
2023-05-11T11:20:53.612Z,18.83
2023-05-11T11:23:41.753Z,18.20
2023-05-11T11:26:15.341Z,17.96
2023-05-11T11:28:54.063Z,17.92
2023-05-11T11:31:29.550Z,17.91
2023-05-11T11:34:01.525Z,17.70
2023-05-11T11:37:03.992Z,17.46
2023-05-11T11:40:05.949Z,17.33
2023-05-11T11:42:42.692Z,17.19
2023-05-11T11:45:31.057Z,17.38
2023-05-11T11:48:08.645Z,17.40
2023-05-11T11:50:35.294Z,17.11
2023-05-11T11:53:01.792Z,16.89
2023-05-11T11:55:50.272Z,16.60
2023-05-11T11:58:41.544Z,16.41
2023-05-11T12:01:36.036Z,15.80
2023-05-11T12:04:05.767Z,15.87
2023-05-11T12:06:37.535Z,15.44
2023-05-11T12:09:05.307Z,15.57
2023-05-11T12:11:33.116Z,15.38
2023-05-11T12:14:00.805Z,15.47
2023-05-11T12:16:28.354Z,15.50
2023-05-11T12:18:58.486Z,15.50
2023-05-11T12:21:29.109Z,15.56
2023-05-11T12:24:04.458Z,15.50
2023-05-11T12:26:32.963Z,15.61
2023-05-11T12:29:13.225Z,15.66
2023-05-11T12:31:42.318Z,15.65
2023-05-11T12:34:16.087Z,15.36
2023-05-11T12:36:44.027Z,15.38
2023-05-11T12:39:23.329Z,15.36
2023-05-11T12:41:51.958Z,15.48
2023-05-11T12:44:19.342Z,15.58
2023-05-11T12:46:47.412Z,15.64
2023-05-11T12:52:00.167Z,15.67
2023-05-11T12:54:41.016Z,15.51
2023-05-11T12:57:09.169Z,15.44
2023-05-11T12:59:41.546Z,15.62
2023-05-11T13:02:19.645Z,15.68
2023-05-11T13:04:47.274Z,15.77
2023-05-11T13:07:23.283Z,15.82
2023-05-11T13:10:00.089Z,15.83
2023-05-11T13:12:29.623Z,15.88
2023-05-11T13:15:09.536Z,15.83
2023-05-11T13:17:38.047Z,16.01
2023-05-11T13:20:19.695Z,16.10
2023-05-11T13:22:47.577Z,16.04
2023-05-11T13:25:19.562Z,16.08
2023-05-11T13:27:46.407Z,15.89
2023-05-11T13:30:13.411Z,16.13
2023-05-11T13:32:39.952Z,16.06
2023-05-11T13:35:07.026Z,16.37
2023-05-11T13:37:33.562Z,16.44
2023-05-11T13:40:00.803Z,16.57
2023-05-11T13:42:27.888Z,16.61
2023-05-11T13:44:54.625Z,16.58
2023-05-11T13:47:21.067Z,16.67
2023-05-11T13:49:47.761Z,16.56
2023-05-11T13:52:15.170Z,16.82
2023-05-11T13:54:42.240Z,16.86
2023-05-11T13:57:08.916Z,16.40
2023-05-11T13:59:35.551Z,16.24
2023-05-11T14:02:02.170Z,16.62
2023-05-11T14:04:28.699Z,16.87
2023-05-11T14:06:55.443Z,16.79
2023-05-11T14:09:23.294Z,16.98
2023-05-11T14:11:50.651Z,16.89
2023-05-11T14:14:17.492Z,16.95
2023-05-11T14:16:44.484Z,17.08
2023-05-11T14:19:11.051Z,17.23
2023-05-11T14:21:37.857Z,17.16
2023-05-11T14:24:12.263Z,16.97
2023-05-11T14:26:39.736Z,17.31
2023-05-11T14:29:06.241Z,17.53
2023-05-11T14:31:35.058Z,17.35
2023-05-11T14:34:05.400Z,17.13
2023-05-11T14:36:32.335Z,17.44
2023-05-11T14:38:58.795Z,17.40
2023-05-11T14:41:25.660Z,17.32
2023-05-11T14:43:52.427Z,17.45
2023-05-11T14:46:19.516Z,17.52
2023-05-11T14:48:46.092Z,17.55
2023-05-11T14:51:12.702Z,17.44
2023-05-11T14:53:39.456Z,17.55
2023-05-11T14:56:06.672Z,17.63
2023-05-11T14:58:33.230Z,17.38
2023-05-11T15:00:59.772Z,17.62
2023-05-11T15:03:26.395Z,17.64
2023-05-11T15:05:52.809Z,17.38
2023-05-11T15:08:29.065Z,17.54
2023-05-11T15:10:57.105Z,17.72
2023-05-11T15:13:24.087Z,17.44
2023-05-11T15:15:51.610Z,17.74
2023-05-11T15:18:18.744Z,17.62
2023-05-11T15:20:46.406Z,17.68
2023-05-11T15:23:16.699Z,17.69
2023-05-11T15:25:44.682Z,17.67
2023-05-11T15:28:11.736Z,17.81
2023-05-11T15:30:38.606Z,17.83
2023-05-11T15:33:05.117Z,17.61
2023-05-11T15:35:31.831Z,17.66
2023-05-11T15:37:58.252Z,17.78
2023-05-11T15:40:24.797Z,17.78
2023-05-11T15:42:51.297Z,17.64
2023-05-11T15:45:18.337Z,17.62
2023-05-11T15:47:45.003Z,17.33
2023-05-11T15:50:11.696Z,17.28
2023-05-11T15:52:40.137Z,17.26
2023-05-11T15:55:07.394Z,17.57
2023-05-11T15:57:34.494Z,17.59
2023-05-11T16:00:00.983Z,17.49
2023-05-11T16:02:27.610Z,17.63
2023-05-11T16:04:54.380Z,17.51
2023-05-11T16:07:20.921Z,17.51
2023-05-11T16:09:47.787Z,17.49
2023-05-11T16:12:14.225Z,17.43
2023-05-11T16:14:40.676Z,17.44
2023-05-11T16:17:07.369Z,17.30
2023-05-11T16:19:33.844Z,17.26
2023-05-11T16:22:00.352Z,17.14
2023-05-11T16:24:26.995Z,16.87
2023-05-11T16:26:53.506Z,16.82
2023-05-11T16:29:19.902Z,16.78
2023-05-11T16:31:46.393Z,16.70
2023-05-11T16:34:12.942Z,16.48
2023-05-11T16:36:39.420Z,16.08
2023-05-11T16:39:05.905Z,15.88
2023-05-11T16:41:32.411Z,15.39
2023-05-11T16:43:58.827Z,15.51
2023-05-11T16:46:25.782Z,15.33
2023-05-11T16:48:52.254Z,15.29
2023-05-11T16:51:19.338Z,15.33
2023-05-11T16:53:46.540Z,15.29
2023-05-11T16:56:13.520Z,15.07
2023-05-11T16:58:40.357Z,14.99
2023-05-11T17:01:07.085Z,15.08
2023-05-11T17:03:34.624Z,14.91
2023-05-11T17:06:01.574Z,14.80
2023-05-11T17:08:28.365Z,14.73
2023-05-11T17:10:55.694Z,14.86
2023-05-11T17:13:22.227Z,14.95
2023-05-11T17:15:48.745Z,15.03
2023-05-11T17:18:15.326Z,15.03
2023-05-11T17:20:42.099Z,14.96
2023-05-11T17:23:08.523Z,15.06
2023-05-11T17:25:35.091Z,15.00
2023-05-11T17:28:01.654Z,15.02
2023-05-11T17:30:39.942Z,15.02
2023-05-11T17:33:13.756Z,15.02
2023-05-11T17:35:40.491Z,14.99
2023-05-11T17:38:07.688Z,14.93
2023-05-11T17:40:34.586Z,14.95
2023-05-11T17:43:01.775Z,14.87
2023-05-11T17:45:29.023Z,14.82
2023-05-11T17:47:55.805Z,14.88
2023-05-11T17:50:23.362Z,14.90
2023-05-11T17:52:51.201Z,14.92
2023-05-11T17:55:18.317Z,14.97
2023-05-11T17:57:45.103Z,14.85
2023-05-11T18:00:12.578Z,14.84
2023-05-11T18:02:39.286Z,14.91
2023-05-11T18:05:06.904Z,14.86
2023-05-11T18:07:33.337Z,14.91
2023-05-11T18:10:00.081Z,14.90
2023-05-11T18:12:26.992Z,14.83
2023-05-11T18:14:53.539Z,14.81
2023-05-11T18:17:20.010Z,14.85
2023-05-11T18:19:46.435Z,14.88
2023-05-11T18:22:13.034Z,14.80
2023-05-11T18:24:39.862Z,14.82
2023-05-11T18:27:06.283Z,14.80
2023-05-11T18:29:32.939Z,14.82
2023-05-11T18:31:59.566Z,14.75
2023-05-11T18:34:26.352Z,14.73
2023-05-11T18:36:52.882Z,14.69
2023-05-11T18:39:19.364Z,14.65
2023-05-11T18:41:45.960Z,14.66
2023-05-11T18:44:14.044Z,14.59
2023-05-11T18:46:41.140Z,14.61
2023-05-11T18:49:07.754Z,14.57
2023-05-11T18:51:34.138Z,14.53
2023-05-11T18:54:01.203Z,14.50
2023-05-11T18:56:27.642Z,14.42
2023-05-11T18:58:54.266Z,14.43
2023-05-11T19:01:22.818Z,14.44
2023-05-11T19:03:52.352Z,14.42
2023-05-11T19:06:18.795Z,14.43
2023-05-11T19:08:45.235Z,14.43
2023-05-11T19:11:13.946Z,14.42
2023-05-11T19:13:40.618Z,14.39
2023-05-11T19:16:07.115Z,14.31
2023-05-11T19:18:35.645Z,14.26
2023-05-11T19:21:03.850Z,14.24
2023-05-11T19:23:31.926Z,14.27
2023-05-11T19:25:59.321Z,14.29
2023-05-11T19:28:26.148Z,14.23
2023-05-11T19:31:03.474Z,14.21
2023-05-11T19:33:30.243Z,14.26
2023-05-11T19:35:56.778Z,14.24
2023-05-11T19:38:23.534Z,14.26
2023-05-11T19:40:50.805Z,14.21
2023-05-11T19:43:17.553Z,14.18
2023-05-11T19:45:45.468Z,14.14
2023-05-11T19:48:13.585Z,14.15
2023-05-11T19:50:40.881Z,14.09
2023-05-11T19:53:07.409Z,14.10
2023-05-11T19:55:33.950Z,14.06
2023-05-11T19:58:00.479Z,14.07
2023-05-11T20:00:26.983Z,14.06
2023-05-11T20:02:53.714Z,13.95
2023-05-11T20:05:20.333Z,13.98
2023-05-11T20:07:46.876Z,13.95
2023-05-11T20:10:13.321Z,13.89
2023-05-11T20:12:40.133Z,13.92
2023-05-11T20:15:08.342Z,13.95
2023-05-11T20:17:35.451Z,13.90
2023-05-11T20:20:02.921Z,13.90
2023-05-11T20:22:29.474Z,13.92
2023-05-11T20:24:56.545Z,13.84
2023-05-11T20:27:23.133Z,13.87
2023-05-11T20:29:49.611Z,13.92
2023-05-11T20:32:16.134Z,13.88
2023-05-11T20:34:42.615Z,13.90
2023-05-11T20:37:09.437Z,13.87
2023-05-11T20:39:36.370Z,13.90
2023-05-11T20:42:04.623Z,13.92
2023-05-11T20:44:31.205Z,13.89
2023-05-11T20:46:57.633Z,13.93
2023-05-11T20:49:37.588Z,13.90
2023-05-11T20:52:05.384Z,13.80
2023-05-11T20:54:33.804Z,13.86
2023-05-11T20:57:01.594Z,13.86
2023-05-11T21:01:58.863Z,13.75
2023-05-11T21:04:25.452Z,13.65
2023-05-11T21:06:54.932Z,13.70
2023-05-11T21:09:21.384Z,13.73
2023-05-11T21:11:48.992Z,13.69
2023-05-11T21:14:15.672Z,13.65
2023-05-11T21:16:42.428Z,13.73
2023-05-11T21:19:09.082Z,13.67
2023-05-11T21:21:35.867Z,13.73
2023-05-11T21:24:02.428Z,13.70
2023-05-11T21:26:28.996Z,13.61
2023-05-11T21:28:57.051Z,13.68
2023-05-11T21:31:23.602Z,13.62
2023-05-11T21:33:50.103Z,13.54
2023-05-11T21:36:16.536Z,13.49
2023-05-11T21:38:42.994Z,13.46
2023-05-11T21:41:09.522Z,13.51
2023-05-11T21:43:36.126Z,13.50
2023-05-11T21:46:02.743Z,13.46
2023-05-11T21:48:29.722Z,13.52
2023-05-11T21:50:56.236Z,13.51
2023-05-11T21:53:23.133Z,13.57
2023-05-11T21:55:50.570Z,13.55
2023-05-11T21:58:17.194Z,13.51
2023-05-11T22:00:44.110Z,13.50
2023-05-11T22:03:10.686Z,13.48
2023-05-11T22:05:37.314Z,13.36
2023-05-11T22:08:14.276Z,13.45
2023-05-11T22:10:43.105Z,13.46
2023-05-11T22:13:09.774Z,13.27
2023-05-11T22:15:36.340Z,13.30
2023-05-11T22:18:03.574Z,13.34
2023-05-11T22:20:31.706Z,13.32
2023-05-11T22:22:59.177Z,13.21
2023-05-11T22:25:25.931Z,13.20
2023-05-11T22:27:52.679Z,13.14
2023-05-11T22:30:19.721Z,13.15
2023-05-11T22:32:46.642Z,13.07
2023-05-11T22:35:13.163Z,13.16
2023-05-11T22:37:39.994Z,13.10
2023-05-11T22:40:07.144Z,13.11
2023-05-11T22:42:33.748Z,13.12
2023-05-11T22:45:00.344Z,13.04
2023-05-11T22:47:27.049Z,13.08
2023-05-11T22:49:53.548Z,13.07
2023-05-11T22:52:19.992Z,13.03
2023-05-11T22:54:46.470Z,13.07
2023-05-11T22:57:16.019Z,13.01
2023-05-11T22:59:42.724Z,12.94
2023-05-11T23:02:09.195Z,13.01
2023-05-11T23:04:35.700Z,13.06
2023-05-11T23:07:17.832Z,13.05
2023-05-11T23:09:44.345Z,12.99
2023-05-11T23:12:11.822Z,12.99
2023-05-11T23:14:38.240Z,12.92
2023-05-11T23:17:04.726Z,12.97
2023-05-11T23:19:31.197Z,12.98
2023-05-11T23:21:57.756Z,12.85
2023-05-11T23:24:24.183Z,12.97
2023-05-11T23:26:50.744Z,12.99
2023-05-11T23:29:17.170Z,12.82
2023-05-11T23:31:43.865Z,12.90
2023-05-11T23:34:10.343Z,12.93
2023-05-11T23:36:36.873Z,12.81
2023-05-11T23:39:03.485Z,12.85
2023-05-11T23:41:29.910Z,12.85
2023-05-11T23:43:56.382Z,12.81
2023-05-11T23:46:22.818Z,12.79
2023-05-11T23:48:49.365Z,12.64
2023-05-11T23:51:16.978Z,12.69
2023-05-11T23:53:43.453Z,12.73
2023-05-11T23:56:09.957Z,12.50
2023-05-11T23:58:36.417Z,12.68
